Time;durP1;ratioP1;P1;durP2;ratioP2;P2;SDS_P1;SDS_P2;PMS_P1;PMS_P2;Temp;Humidity;BMP_temperature;BMP_pressure;BME280_temperature;BME280_humidity;BME280_pressure;Samples;Min_cycle;Max_cycle;Signal;HPM_P1;HPM_P2
2021/05/06 00:00:50;;;;;;;0.5;0.4;;;;;;;;;;;;;
2021/05/06 00:03:08;;;;;;;0.5;0.4;;;;;;;;;;;;;
2021/05/06 00:07:50;;;;;;;0.8;0.5;;;;;;;;;;;;;
2021/05/06 00:34:06;;;;;;;0.8;0.4;;;;;;;;;;;;;
2021/05/06 00:36:33;;;;;;;0.2;0.2;;;;;;;;;;;;;
2021/05/06 00:39:02;;;;;;;0.9;0.4;;;;;;;;;;;;;
2021/05/06 00:41:42;;;;;;;1.1;0.5;;;;;;;;;;;;;
2021/05/06 00:44:05;;;;;;;0.4;0.4;;;;;;;;;;;;;
2021/05/06 00:46:37;;;;;;;0.4;0.3;;;;;;;;;;;;;
2021/05/06 00:58:43;;;;;;;0.2;0.2;;;;;;;;;;;;;
2021/05/06 01:01:06;;;;;;;0.5;0.5;;;;;;;;;;;;;
2021/05/06 01:03:20;;;;;;;0.6;0.4;;;;;;;;;;;;;
2021/05/06 01:05:38;;;;;;;0.6;0.4;;;;;;;;;;;;;
2021/05/06 01:08:06;;;;;;;1;0.7;;;;;;;;;;;;;
2021/05/06 01:10:36;;;;;;;0.4;0.4;;;;;;;;;;;;;
2021/05/06 01:12:50;;;;;;;0.4;0.4;;;;;;;;;;;;;
2021/05/06 01:15:15;;;;;;;0.4;0.4;;;;;;;;;;;;;
2021/05/06 01:17:41;;;;;;;3.1;0.4;;;;;;;;;;;;;
2021/05/06 01:20:06;;;;;;;0.6;0.5;;;;;;;;;;;;;
2021/05/06 01:22:31;;;;;;;0.7;0.6;;;;;;;;;;;;;
2021/05/06 01:24:58;;;;;;;0.6;0.5;;;;;;;;;;;;;
2021/05/06 01:27:25;;;;;;;0.4;0.4;;;;;;;;;;;;;
2021/05/06 01:29:51;;;;;;;0.5;0.4;;;;;;;;;;;;;
2021/05/06 01:32:19;;;;;;;0.7;0.5;;;;;;;;;;;;;
2021/05/06 01:34:38;;;;;;;0.7;0.6;;;;;;;;;;;;;
2021/05/06 01:37:08;;;;;;;0.5;0.5;;;;;;;;;;;;;
2021/05/06 01:39:49;;;;;;;4.8;0.5;;;;;;;;;;;;;
2021/05/06 01:41:57;;;;;;;0.5;0.4;;;;;;;;;;;;;
2021/05/06 01:44:30;;;;;;;1.6;0.7;;;;;;;;;;;;;
2021/05/06 01:47:03;;;;;;;0.7;0.5;;;;;;;;;;;;;
2021/05/06 01:58:51;;;;;;;0.3;0.3;;;;;;;;;;;;;
2021/05/06 02:01:15;;;;;;;1.9;0.8;;;;;;;;;;;;;
2021/05/06 02:03:40;;;;;;;0.4;0.3;;;;;;;;;;;;;
2021/05/06 02:06:06;;;;;;;0.4;0.4;;;;;;;;;;;;;
2021/05/06 02:08:31;;;;;;;2.5;0.8;;;;;;;;;;;;;
2021/05/06 02:10:59;;;;;;;0.7;0.4;;;;;;;;;;;;;
2021/05/06 02:13:23;;;;;;;1.1;0.9;;;;;;;;;;;;;
2021/05/06 02:15:52;;;;;;;1.3;0.6;;;;;;;;;;;;;
2021/05/06 02:18:16;;;;;;;0.5;0.5;;;;;;;;;;;;;
2021/05/06 02:20:40;;;;;;;0.8;0.6;;;;;;;;;;;;;
2021/05/06 02:23:05;;;;;;;0.9;0.7;;;;;;;;;;;;;
2021/05/06 02:25:31;;;;;;;1;0.6;;;;;;;;;;;;;
2021/05/06 02:27:56;;;;;;;1.1;0.8;;;;;;;;;;;;;
2021/05/06 02:30:21;;;;;;;3.1;0.7;;;;;;;;;;;;;
2021/05/06 02:32:46;;;;;;;0.4;0.4;;;;;;;;;;;;;
2021/05/06 02:35:12;;;;;;;0.5;0.4;;;;;;;;;;;;;
2021/05/06 02:37:37;;;;;;;0.8;0.6;;;;;;;;;;;;;
2021/05/06 02:40:05;;;;;;;1.5;0.9;;;;;;;;;;;;;
2021/05/06 02:42:30;;;;;;;1.5;0.8;;;;;;;;;;;;;
2021/05/06 02:44:56;;;;;;;0.5;0.4;;;;;;;;;;;;;
2021/05/06 02:47:21;;;;;;;0.8;0.8;;;;;;;;;;;;;
2021/05/06 02:49:47;;;;;;;1.5;1;;;;;;;;;;;;;
2021/05/06 02:52:15;;;;;;;2.6;1;;;;;;;;;;;;;
2021/05/06 02:54:40;;;;;;;1.2;0.6;;;;;;;;;;;;;
2021/05/06 02:57:06;;;;;;;2.2;0.7;;;;;;;;;;;;;
2021/05/06 03:02:42;;;;;;;0.4;0.3;;;;;;;;;;;;;
2021/05/06 03:04:17;;;;;;;0.3;0.3;;;;;;;;;;;;;
2021/05/06 03:06:48;;;;;;;0.6;0.6;;;;;;;;;;;;;
2021/05/06 03:09:19;;;;;;;2.2;0.5;;;;;;;;;;;;;
2021/05/06 03:11:41;;;;;;;0.6;0.4;;;;;;;;;;;;;
2021/05/06 03:21:34;;;;;;;1.1;0.7;;;;;;;;;;;;;
2021/05/06 03:23:38;;;;;;;1.5;0.7;;;;;;;;;;;;;
2021/05/06 03:26:03;;;;;;;0.6;0.6;;;;;;;;;;;;;
2021/05/06 03:28:34;;;;;;;0.5;0.4;;;;;;;;;;;;;
2021/05/06 03:31:05;;;;;;;2.4;1.2;;;;;;;;;;;;;
2021/05/06 03:36:00;;;;;;;0.7;0.5;;;;;;;;;;;;;
2021/05/06 03:43:11;;;;;;;1.4;0.7;;;;;;;;;;;;;
2021/05/06 03:46:06;;;;;;;0.6;0.5;;;;;;;;;;;;;
2021/05/06 03:48:16;;;;;;;1.2;0.7;;;;;;;;;;;;;
2021/05/06 03:50:52;;;;;;;1.2;0.7;;;;;;;;;;;;;
2021/05/06 04:12:50;;;;;;;2.1;0.6;;;;;;;6.62;78.86035;933.709;;;;
2021/05/06 04:16:01;;;;;;;1.3;0.5;;;;;;;6.68;78.9043;933.6404;;;;
2021/05/06 04:17:21;;;;;;;2.7;0.6;;;;;;;6.72;78.56055;933.558;;;;
2021/05/06 04:26:58;;;;;;;1.6;0.8;;;;;;;6.64;78.26465;933.6026;;;;
2021/05/06 04:29:58;;;;;;;2.7;0.5;;;;;;;6.67;78.40332;933.535;;;;
2021/05/06 04:36:41;;;;;;;0.8;0.6;;;;;;;6.89;77.30273;933.4922;;;;
2021/05/06 04:38:58;;;;;;;0.5;0.4;;;;;;;6.95;78.04883;933.5302;;;;
2021/05/06 04:41:41;;;;;;;1.1;0.8;;;;;;;6.93;76.64355;933.575;;;;
2021/05/06 04:44:26;;;;;;;0.8;0.6;;;;;;;6.88;76.83594;933.6241;;;;
2021/05/06 04:50:18;;;;;;;0.5;0.5;;;;;;;6.82;74.93359;933.6239;;;;
2021/05/06 04:53:41;;;;;;;0.8;0.8;;;;;;;7.12;75.28223;933.5559;;;;
2021/05/06 04:56:00;;;;;;;2.9;0.7;;;;;;;7.09;74.94922;933.5682;;;;
2021/05/06 04:58:57;;;;;;;0.9;0.8;;;;;;;6.94;76.14453;933.5989;;;;
2021/05/06 05:03:56;;;;;;;0.6;0.5;;;;;;;7.04;77.64648;933.5683;;;;
2021/05/06 05:05:37;;;;;;;0.3;0.3;;;;;;;7.18;77.42188;933.556;;;;
2021/05/06 05:08:07;;;;;;;1.4;0.7;;;;;;;7.13;77.10742;933.5901;;;;
2021/05/06 05:10:40;;;;;;;0.6;0.4;;;;;;;6.97;77.90625;933.6041;;;;
2021/05/06 05:13:08;;;;;;;1.1;0.5;;;;;;;7.02;77.41602;933.6154;;;;
2021/05/06 05:17:49;;;;;;;1.6;0.8;;;;;;;6.83;78.16309;933.6431;;;;
2021/05/06 05:20:13;;;;;;;3.2;1;;;;;;;6.71;78.24414;933.5546;;;;
2021/05/06 05:25:01;;;;;;;1;0.7;;;;;;;6.74;78.81445;933.601;;;;
2021/05/06 05:27:23;;;;;;;5.7;0.7;;;;;;;6.97;78.49414;933.5859;;;;
2021/05/06 05:29:52;;;;;;;0.7;0.6;;;;;;;6.8;77.72852;933.6052;;;;
2021/05/06 05:32:17;;;;;;;0.9;0.6;;;;;;;6.67;78.43945;933.6316;;;;
2021/05/06 05:34:43;;;;;;;1.4;0.8;;;;;;;6.98;78.8916;933.5433;;;;
2021/05/06 05:37:07;;;;;;;2.3;0.9;;;;;;;7.18;77.85352;933.5014;;;;
2021/05/06 05:39:37;;;;;;;0.8;0.7;;;;;;;7.37;76.80957;933.4567;;;;
2021/05/06 05:42:09;;;;;;;0.7;0.6;;;;;;;7.22;73.97363;933.5197;;;;
2021/05/06 05:47:09;;;;;;;1.5;0.6;;;;;;;7.41;72.87109;933.4874;;;;
2021/05/06 05:56:28;;;;;;;1.4;0.8;;;;;;;7.82;69.98047;933.5742;;;;
2021/05/06 05:58:54;;;;;;;2.9;0.7;;;;;;;7.76;70.2666;933.4664;;;;
2021/05/06 06:01:20;;;;;;;1.9;0.7;;;;;;;7.7;69.87207;933.4997;;;;
2021/05/06 06:03:45;;;;;;;0.9;0.7;;;;;;;7.84;70.8125;933.454;;;;
2021/05/06 06:06:10;;;;;;;0.4;0.4;;;;;;;7.85;70.79199;933.6381;;;;
2021/05/06 06:08:38;;;;;;;1.5;0.7;;;;;;;7.95;71.75098;933.6226;;;;
2021/05/06 06:11:03;;;;;;;0.9;0.7;;;;;;;7.97;71.64063;933.6902;;;;
2021/05/06 06:13:29;;;;;;;0.8;0.7;;;;;;;8.13;71.64453;933.6234;;;;
2021/05/06 06:15:59;;;;;;;1.2;0.7;;;;;;;8.23;71.01367;933.6096;;;;
2021/05/06 06:18:23;;;;;;;1.5;1.1;;;;;;;8.17;70.11914;933.5992;;;;
2021/05/06 06:20:47;;;;;;;1.1;0.7;;;;;;;8.09;70.16113;933.5405;;;;
2021/05/06 06:23:12;;;;;;;0.7;0.5;;;;;;;8.08;70.45605;933.4808;;;;
2021/05/06 06:25:37;;;;;;;1.7;0.7;;;;;;;8.19;68.45117;933.3869;;;;
2021/05/06 06:28:03;;;;;;;0.5;0.4;;;;;;;8.29;69.00195;933.3477;;;;
2021/05/06 06:30:28;;;;;;;1.1;0.5;;;;;;;8.33;67.60938;933.3219;;;;
2021/05/06 06:32:54;;;;;;;0.7;0.6;;;;;;;8.8;67.57129;933.2975;;;;
2021/05/06 06:35:19;;;;;;;0.3;0.3;;;;;;;8.83;65.69922;933.2869;;;;
2021/05/06 06:37:45;;;;;;;1;0.3;;;;;;;9.09;64.84082;933.2264;;;;
2021/05/06 06:40:10;;;;;;;1.4;0.7;;;;;;;9.04;65.01367;933.1458;;;;
2021/05/06 06:42:36;;;;;;;2.2;0.8;;;;;;;9.31;64.56641;933.0953;;;;
2021/05/06 06:45:01;;;;;;;0.6;0.5;;;;;;;9.28;63.39941;933.0928;;;;
2021/05/06 06:47:27;;;;;;;1.8;0.7;;;;;;;9.32;64.22461;933.1144;;;;
2021/05/06 06:49:52;;;;;;;1.6;0.6;;;;;;;9.55;64.05469;933.0165;;;;
2021/05/06 06:52:18;;;;;;;0.3;0.3;;;;;;;9.41;62.51855;932.9814;;;;
2021/05/06 06:54:43;;;;;;;2.7;0.5;;;;;;;9.33;64.10254;932.9453;;;;
2021/05/06 06:57:10;;;;;;;4.3;0.7;;;;;;;9.49;63.6123;932.952;;;;
2021/05/06 06:59:34;;;;;;;0.9;0.6;;;;;;;9.61;62.82227;932.8917;;;;
2021/05/06 07:02:00;;;;;;;2.1;0.7;;;;;;;9.91;62.2041;932.8739;;;;
2021/05/06 07:04:25;;;;;;;0.7;0.5;;;;;;;10.16;60.63184;932.8923;;;;
2021/05/06 07:06:52;;;;;;;0.9;0.6;;;;;;;10.42;59.65332;932.8904;;;;
2021/05/06 07:09:17;;;;;;;1.3;0.6;;;;;;;10.08;58.51074;932.8102;;;;
2021/05/06 07:11:43;;;;;;;0.4;0.4;;;;;;;10.01;60.2002;932.7544;;;;
2021/05/06 07:14:09;;;;;;;2.1;1.5;;;;;;;10.02;59.10742;932.7997;;;;
2021/05/06 07:16:35;;;;;;;0.6;0.5;;;;;;;9.96;58.92676;932.7841;;;;
2021/05/06 07:19:00;;;;;;;0.5;0.4;;;;;;;9.79;58.84668;932.6713;;;;
2021/05/06 07:21:26;;;;;;;0.5;0.4;;;;;;;9.96;60.03418;932.6736;;;;
2021/05/06 07:23:53;;;;;;;0.6;0.4;;;;;;;9.91;58.6582;932.5859;;;;
2021/05/06 07:26:17;;;;;;;4.4;0.4;;;;;;;9.83;59.66309;932.5549;;;;
2021/05/06 07:28:43;;;;;;;1.7;0.6;;;;;;;10.16;60.25488;932.6536;;;;
2021/05/06 07:31:09;;;;;;;0.5;0.5;;;;;;;10.65;58.35938;932.66;;;;
2021/05/06 07:33:34;;;;;;;1.1;0.5;;;;;;;10.82;56.02734;932.5647;;;;
2021/05/06 07:35:59;;;;;;;0.4;0.3;;;;;;;10.83;57.27539;932.4818;;;;
2021/05/06 07:38:25;;;;;;;0.2;0.2;;;;;;;10.54;57.14551;932.5156;;;;
2021/05/06 07:40:52;;;;;;;0.7;0.5;;;;;;;10.76;56.44336;932.4888;;;;
2021/05/06 07:43:17;;;;;;;0.9;0.3;;;;;;;11.3;54.74121;932.3683;;;;
2021/05/06 07:45:43;;;;;;;0.7;0.3;;;;;;;11.24;51.46289;932.2784;;;;
2021/05/06 07:48:08;;;;;;;0.2;0.2;;;;;;;11.23;51.21094;932.2394;;;;
2021/05/06 07:50:35;;;;;;;0.3;0.3;;;;;;;11.47;49.52246;932.2229;;;;
2021/05/06 07:53:05;;;;;;;1;0.9;;;;;;;11.99;50.68066;932.2189;;;;
2021/05/06 07:55:26;;;;;;;0.2;0.2;;;;;;;12.38;49.58105;932.1777;;;;
2021/05/06 07:57:51;;;;;;;2.2;1.4;;;;;;;13.15;47.19727;932.0858;;;;
2021/05/06 08:00:19;;;;;;;0.5;0.4;;;;;;;15.01;45.21973;932.0364;;;;
2021/05/06 08:02:42;;;;;;;0.9;0.2;;;;;;;16.89;43.65332;931.9494;;;;
2021/05/06 08:05:07;;;;;;;1;0.6;;;;;;;19.15;37.42676;931.9078;;;;
2021/05/06 08:07:32;;;;;;;0.3;0.3;;;;;;;20.95;34.0957;931.7986;;;;
2021/05/06 08:09:58;;;;;;;4.5;0.2;;;;;;;22.73;28.32715;931.7406;;;;
2021/05/06 08:12:24;;;;;;;0.7;0.4;;;;;;;23.72;27.60156;931.6847;;;;
2021/05/06 08:14:49;;;;;;;10.1;5.3;;;;;;;21.09;30.49219;931.6685;;;;
2021/05/06 08:17:14;;;;;;;2.7;0.7;;;;;;;22.69;29.58105;931.6314;;;;
2021/05/06 08:19:41;;;;;;;3.2;1.6;;;;;;;20.6;29.53516;931.598;;;;
2021/05/06 08:22:05;;;;;;;0.3;0.3;;;;;;;19.67;31.15234;931.5469;;;;
2021/05/06 08:24:31;;;;;;;0.7;0.4;;;;;;;19.37;32.5293;931.5112;;;;
2021/05/06 08:26:56;;;;;;;11.2;7.3;;;;;;;19.24;30.70313;931.4659;;;;
2021/05/06 08:29:23;;;;;;;0.1;0.1;;;;;;;18.22;35.05859;931.4483;;;;
2021/05/06 08:31:47;;;;;;;0.5;0.3;;;;;;;19.5;32.72461;931.4104;;;;
2021/05/06 08:34:14;;;;;;;0.3;0.3;;;;;;;18.87;33.30664;931.4722;;;;
2021/05/06 08:36:39;;;;;;;0.3;0.2;;;;;;;18.89;33.5293;931.4409;;;;
2021/05/06 08:39:05;;;;;;;0.2;0.2;;;;;;;18.47;32.52051;931.4305;;;;
2021/05/06 08:41:30;;;;;;;1.1;0.5;;;;;;;17.22;34.08691;931.4305;;;;
2021/05/06 08:43:58;;;;;;;4.1;0.5;;;;;;;16.7;35.26172;931.4127;;;;
2021/05/06 08:46:21;;;;;;;28.7;16.1;;;;;;;17.16;34.5332;931.3787;;;;
2021/05/06 08:48:48;;;;;;;1;0.6;;;;;;;16.91;32.58984;931.3787;;;;
2021/05/06 08:51:13;;;;;;;3.3;2.3;;;;;;;16.17;34.29395;931.3535;;;;
2021/05/06 08:53:39;;;;;;;0.4;0.2;;;;;;;16.37;34.44824;931.2631;;;;
2021/05/06 08:56:04;;;;;;;0.3;0.2;;;;;;;15.94;35.47754;931.1136;;;;
2021/05/06 08:58:31;;;;;;;0.8;0.8;;;;;;;15.93;35.81348;931.1467;;;;
2021/05/06 09:00:56;;;;;;;4.2;3;;;;;;;15.53;35.2832;931.0598;;;;
2021/05/06 09:03:22;;;;;;;0.1;0.1;;;;;;;15.13;35.24023;931.0393;;;;
2021/05/06 09:06:12;;;;;;;0.2;0.2;;;;;;;15.5;36.22754;931.0661;;;;
2021/05/06 09:08:36;;;;;;;1.8;0.3;;;;;;;15.78;35.52344;931.0502;;;;
2021/05/06 09:11:01;;;;;;;0.6;0.4;;;;;;;15.14;35.55273;931.0503;;;;
2021/05/06 09:13:26;;;;;;;0.3;0.3;;;;;;;15.06;36.03027;931.0424;;;;
2021/05/06 09:15:54;;;;;;;1.2;0.6;;;;;;;15.08;35.58203;931.0355;;;;
2021/05/06 09:18:19;;;;;;;0.2;0.2;;;;;;;15.68;37.41016;931.063;;;;
2021/05/06 09:20:46;;;;;;;1.2;0.2;;;;;;;15.67;38.06738;931.0792;;;;
2021/05/06 09:23:11;;;;;;;0.5;0.4;;;;;;;15.65;36.06738;931.0748;;;;
2021/05/06 09:25:36;;;;;;;0.5;0.4;;;;;;;15.51;36.87598;931.0626;;;;
2021/05/06 09:28:02;;;;;;;0.6;0.4;;;;;;;15.19;34.59863;931.0968;;;;
2021/05/06 09:30:27;;;;;;;0.6;0.3;;;;;;;14.78;33.00879;931.0768;;;;
2021/05/06 09:32:54;;;;;;;1.1;0.3;;;;;;;14.98;38.12207;931.0517;;;;
2021/05/06 09:35:19;;;;;;;0.2;0.2;;;;;;;14.93;38.36035;931.071;;;;
2021/05/06 09:37:44;;;;;;;0.1;0.1;;;;;;;15.49;37.52148;931.0598;;;;
2021/05/06 09:40:09;;;;;;;0.1;0;;;;;;;15.45;37.48242;931.2115;;;;
2021/05/06 09:42:34;;;;;;;0.2;0.1;;;;;;;15.58;39.08789;931.1462;;;;
2021/05/06 09:45:00;;;;;;;0.1;0;;;;;;;15.79;37.43164;931.1808;;;;
2021/05/06 09:47:25;;;;;;;0.1;0.1;;;;;;;15.88;36.16699;931.1768;;;;
2021/05/06 09:49:51;;;;;;;0.6;0.2;;;;;;;15.65;37.60352;931.1412;;;;
2021/05/06 09:52:16;;;;;;;0.1;0.1;;;;;;;15.89;36.66406;931.1613;;;;
2021/05/06 09:54:41;;;;;;;0.1;0;;;;;;;15.85;36.70703;931.1414;;;;
2021/05/06 09:57:08;;;;;;;0.4;0.3;;;;;;;15.98;36.70801;931.1206;;;;
2021/05/06 09:59:36;;;;;;;0.2;0.2;;;;;;;15.88;36.58301;931.176;;;;
2021/05/06 10:01:59;;;;;;;1.7;0.3;;;;;;;15.85;36.68457;931.1476;;;;
2021/05/06 10:04:25;;;;;;;1.6;0.6;;;;;;;15.51;38.37695;931.1735;;;;
2021/05/06 10:06:51;;;;;;;0.4;0.1;;;;;;;15.61;37.69238;931.1956;;;;
2021/05/06 10:09:16;;;;;;;9.9;0.5;;;;;;;15.67;37.16602;931.1771;;;;
2021/05/06 10:11:41;;;;;;;0.3;0.3;;;;;;;15.67;38.19434;931.1835;;;;
2021/05/06 10:14:06;;;;;;;0.5;0.4;;;;;;;15.67;37.45508;931.2541;;;;
2021/05/06 10:16:31;;;;;;;0.4;0.3;;;;;;;15.86;37.28613;931.2358;;;;
2021/05/06 10:18:57;;;;;;;0.3;0.3;;;;;;;15.92;36.04395;931.2319;;;;
2021/05/06 10:21:23;;;;;;;0.3;0.2;;;;;;;15.51;36.85254;931.3035;;;;
2021/05/06 10:23:48;;;;;;;6.8;0.2;;;;;;;15.59;37.2168;931.2604;;;;
2021/05/06 10:26:15;;;;;;;0.2;0.2;;;;;;;15.83;37.41113;931.2236;;;;
2021/05/06 10:28:40;;;;;;;0.2;0.2;;;;;;;15.84;36.69531;931.238;;;;
2021/05/06 10:31:07;;;;;;;0.2;0.2;;;;;;;16;37.02148;931.1917;;;;
2021/05/06 10:33:31;;;;;;;0.1;0.1;;;;;;;16.1;38.23145;931.1785;;;;
2021/05/06 10:35:56;;;;;;;0.2;0.2;;;;;;;16.11;38.39551;931.1179;;;;
2021/05/06 10:38:22;;;;;;;2;0.4;;;;;;;15.85;39.50488;931.0764;;;;
2021/05/06 10:40:47;;;;;;;0.1;0.1;;;;;;;15.59;40.69434;931.144;;;;
2021/05/06 10:43:12;;;;;;;0.1;0.1;;;;;;;15.57;40.63477;931.1505;;;;
2021/05/06 10:45:37;;;;;;;0.8;0.4;;;;;;;15.58;40.73828;931.1199;;;;
2021/05/06 10:48:03;;;;;;;0.3;0.3;;;;;;;15.75;38.75586;931.0959;;;;
2021/05/06 10:50:27;;;;;;;0.2;0.1;;;;;;;15.9;39.49805;931.0526;;;;
2021/05/06 10:52:55;;;;;;;0.1;0.1;;;;;;;15.61;40.34961;931.0313;;;;
2021/05/06 10:55:20;;;;;;;0.3;0.3;;;;;;;15.23;42.00977;931.0041;;;;
2021/05/06 10:57:45;;;;;;;0.1;0.1;;;;;;;15.66;39.01367;930.9131;;;;
2021/05/06 11:00:11;;;;;;;2.5;0.2;;;;;;;15.36;40.02539;930.9043;;;;
2021/05/06 11:02:38;;;;;;;0.3;0.3;;;;;;;15.29;40.25098;930.9177;;;;
2021/05/06 11:05:01;;;;;;;0;0;;;;;;;15.43;38.49707;930.8149;;;;
2021/05/06 11:07:27;;;;;;;0.2;0.2;;;;;;;15.46;40.34668;930.7773;;;;
2021/05/06 11:10:21;;;;;;;1.8;0.6;;;;;;;15.55;38.77344;930.7184;;;;
2021/05/06 11:12:48;;;;;;;0.8;0.4;;;;;;;15.88;39.73828;930.6942;;;;
2021/05/06 11:15:13;;;;;;;0.4;0.2;;;;;;;16;39.05566;930.5758;;;;
2021/05/06 11:17:40;;;;;;;0.1;0.1;;;;;;;15.74;40.89355;930.6457;;;;
2021/05/06 11:20:05;;;;;;;2.8;0.3;;;;;;;16.08;40.05762;930.6039;;;;
2021/05/06 11:22:30;;;;;;;0.2;0.2;;;;;;;16.28;38.44531;930.5808;;;;
2021/05/06 11:24:56;;;;;;;0.4;0.4;;;;;;;16.31;39.96191;930.4863;;;;
2021/05/06 11:27:21;;;;;;;0.1;0.1;;;;;;;16.05;40.90918;930.4344;;;;
2021/05/06 11:29:46;;;;;;;4.9;0.5;;;;;;;15.74;41.87598;930.4025;;;;
2021/05/06 11:32:11;;;;;;;0.4;0.3;;;;;;;15.28;42.22363;930.326;;;;
2021/05/06 11:34:37;;;;;;;0.1;0.1;;;;;;;14.99;43.06152;930.2424;;;;
2021/05/06 11:37:01;;;;;;;5;0.5;;;;;;;14.79;43.51367;930.2383;;;;
2021/05/06 11:39:27;;;;;;;0.6;0.2;;;;;;;14.71;44.1748;930.2926;;;;
2021/05/06 11:41:52;;;;;;;0.3;0.3;;;;;;;14.77;43.22363;930.2819;;;;
2021/05/06 11:44:17;;;;;;;0.3;0.3;;;;;;;14.87;43.03613;930.2241;;;;
2021/05/06 11:46:45;;;;;;;0.2;0.1;;;;;;;14.61;44.79785;930.1901;;;;
2021/05/06 11:49:11;;;;;;;0.1;0.1;;;;;;;14.38;44.29102;930.1707;;;;
2021/05/06 11:51:34;;;;;;;0.2;0.2;;;;;;;14.45;44.78223;930.0881;;;;
2021/05/06 11:53:59;;;;;;;0.3;0.3;;;;;;;14.12;47.49902;930.0524;;;;
2021/05/06 11:56:24;;;;;;;2.7;0.2;;;;;;;13.96;46.83691;930.0974;;;;
2021/05/06 11:58:49;;;;;;;1.5;0.4;;;;;;;13.79;49.04004;930.1021;;;;
2021/05/06 12:01:14;;;;;;;0.3;0.3;;;;;;;13.75;46.75684;930.0428;;;;
2021/05/06 12:03:39;;;;;;;0.3;0.2;;;;;;;13.8;46.35938;929.9877;;;;
2021/05/06 12:06:04;;;;;;;0.2;0.2;;;;;;;13.81;46.99414;929.925;;;;
2021/05/06 12:08:32;;;;;;;1;0.5;;;;;;;13.59;47.52148;929.7842;;;;
2021/05/06 12:10:54;;;;;;;0.3;0.3;;;;;;;13.64;47.1709;929.7661;;;;
2021/05/06 12:13:21;;;;;;;1.1;0.5;;;;;;;13.88;46.81641;929.7458;;;;
2021/05/06 12:15:46;;;;;;;2;0.9;;;;;;;14.04;47.31836;929.72;;;;
2021/05/06 12:18:12;;;;;;;0.4;0.3;;;;;;;14.16;45.82324;929.7089;;;;
2021/05/06 12:20:37;;;;;;;0.3;0.3;;;;;;;14.16;46.33008;929.653;;;;
2021/05/06 12:23:02;;;;;;;0.5;0.5;;;;;;;13.8;47.9707;929.5898;;;;
2021/05/06 12:25:28;;;;;;;0.3;0.3;;;;;;;13.7;47.76367;929.498;;;;
2021/05/06 12:27:53;;;;;;;2.1;0.4;;;;;;;13.65;47.71289;929.4973;;;;
2021/05/06 12:30:18;;;;;;;0.4;0.3;;;;;;;13.64;47.00977;929.4709;;;;
2021/05/06 12:32:46;;;;;;;0.2;0.2;;;;;;;13.52;48.45703;929.4078;;;;
2021/05/06 12:35:08;;;;;;;0.5;0.3;;;;;;;13.34;48.00098;929.4344;;;;
2021/05/06 12:37:33;;;;;;;0.4;0.3;;;;;;;13.45;48.66797;929.3474;;;;
2021/05/06 12:40:00;;;;;;;0.9;0.6;;;;;;;13.55;49.85254;929.3521;;;;
2021/05/06 12:42:25;;;;;;;0.3;0.2;;;;;;;13.73;47.84668;929.2783;;;;
2021/05/06 12:44:50;;;;;;;2;0.7;;;;;;;13.44;49.47168;929.2244;;;;
2021/05/06 12:47:15;;;;;;;0.5;0.4;;;;;;;13.45;48.86328;929.2355;;;;
2021/05/06 12:49:40;;;;;;;0.6;0.4;;;;;;;13.47;48.42871;929.1479;;;;
2021/05/06 12:52:05;;;;;;;2.1;0.6;;;;;;;13.27;50.55371;929.2302;;;;
2021/05/06 12:54:30;;;;;;;1.5;0.5;;;;;;;13.07;48.70605;929.1894;;;;
2021/05/06 12:56:56;;;;;;;0.6;0.4;;;;;;;13.14;49.35645;929.1332;;;;
2021/05/06 12:59:21;;;;;;;0.2;0.1;;;;;;;13.08;49.32715;929.1204;;;;
2021/05/06 13:01:47;;;;;;;0.3;0.2;;;;;;;13.04;49.73535;929.0156;;;;
2021/05/06 13:04:12;;;;;;;0.4;0.3;;;;;;;13.17;48.93652;928.9016;;;;
2021/05/06 13:06:37;;;;;;;0.8;0.5;;;;;;;13.24;49.28711;928.9483;;;;
2021/05/06 13:09:02;;;;;;;0.9;0.6;;;;;;;13.1;50.30566;928.95;;;;
2021/05/06 13:11:28;;;;;;;2.3;0.7;;;;;;;13.01;51.43164;928.8455;;;;
2021/05/06 13:13:53;;;;;;;2.6;0.4;;;;;;;12.94;50.40137;928.7531;;;;
2021/05/06 13:16:18;;;;;;;0.2;0.2;;;;;;;12.93;51.88086;928.7947;;;;
2021/05/06 13:18:43;;;;;;;0.8;0.5;;;;;;;13.16;49.19824;928.726;;;;
2021/05/06 13:21:09;;;;;;;0.5;0.5;;;;;;;13.07;51.7041;928.6978;;;;
2021/05/06 13:23:36;;;;;;;0.3;0.3;;;;;;;13.08;51.72754;928.5258;;;;
2021/05/06 13:26:01;;;;;;;1.1;0.4;;;;;;;12.99;50.84375;928.4622;;;;
2021/05/06 13:28:27;;;;;;;0.3;0.2;;;;;;;13.26;51.48438;928.3668;;;;
2021/05/06 13:30:52;;;;;;;1;0.6;;;;;;;13.31;52.91602;928.3379;;;;
2021/05/06 13:33:19;;;;;;;3.4;0.3;;;;;;;13.45;49.81738;928.3622;;;;
2021/05/06 13:35:43;;;;;;;0.3;0.2;;;;;;;13.77;47.81836;928.2974;;;;
2021/05/06 13:38:09;;;;;;;0.2;0.2;;;;;;;14.03;48.27246;928.2642;;;;
2021/05/06 13:40:34;;;;;;;1.6;0.3;;;;;;;14.25;48.04395;928.3055;;;;
2021/05/06 13:43:00;;;;;;;0.3;0.2;;;;;;;14.47;46.74121;928.1951;;;;
2021/05/06 13:45:26;;;;;;;1.5;0.9;;;;;;;14.63;46.50684;928.175;;;;
2021/05/06 13:47:52;;;;;;;1.1;0.7;;;;;;;14.66;48.73438;928.2198;;;;
2021/05/06 13:50:17;;;;;;;0.4;0.2;;;;;;;14.53;48.61621;928.1785;;;;
2021/05/06 13:52:43;;;;;;;0.5;0.4;;;;;;;14.34;48.09863;928.1605;;;;
2021/05/06 13:55:08;;;;;;;0.6;0.3;;;;;;;14.36;48.27344;928.1256;;;;
2021/05/06 13:57:34;;;;;;;0.3;0.3;;;;;;;14.38;47.00977;928.1652;;;;
2021/05/06 14:00:00;;;;;;;0.7;0.6;;;;;;;14.17;48.7832;928.2156;;;;
2021/05/06 14:02:26;;;;;;;0.6;0.4;;;;;;;14.05;49.51758;928.1294;;;;
2021/05/06 14:04:51;;;;;;;0.2;0.2;;;;;;;13.91;48.9834;928.0103;;;;
2021/05/06 14:07:17;;;;;;;2.5;0.4;;;;;;;13.88;49.0957;928.03;;;;
2021/05/06 14:09:43;;;;;;;2.8;0.3;;;;;;;13.93;49.97656;928.1177;;;;
2021/05/06 14:12:07;;;;;;;0.8;0.5;;;;;;;13.98;48.88867;928.0808;;;;
2021/05/06 14:14:32;;;;;;;0.3;0.3;;;;;;;14.18;48.0459;928.0419;;;;
2021/05/06 14:16:57;;;;;;;0.7;0.4;;;;;;;13.98;48.54297;927.9975;;;;
2021/05/06 14:19:23;;;;;;;0.5;0.4;;;;;;;13.89;49.87988;928.021;;;;
2021/05/06 14:21:49;;;;;;;0.4;0.2;;;;;;;14.03;48.15723;927.9944;;;;
2021/05/06 14:24:15;;;;;;;0.5;0.5;;;;;;;13.78;49.24609;927.9755;;;;
2021/05/06 14:26:40;;;;;;;0.3;0.1;;;;;;;13.63;49.91797;927.9993;;;;
2021/05/06 14:29:06;;;;;;;1;0.6;;;;;;;13.75;49.82813;928.0483;;;;
2021/05/06 14:31:31;;;;;;;4.1;0.6;;;;;;;13.85;49.81641;928.0249;;;;
2021/05/06 14:33:56;;;;;;;1.5;0.6;;;;;;;13.88;49.19922;927.9819;;;;
2021/05/06 14:36:21;;;;;;;2.4;0.5;;;;;;;13.78;49.37207;928.0115;;;;
2021/05/06 14:38:46;;;;;;;4.2;0.6;;;;;;;13.74;49.30957;927.998;;;;
2021/05/06 14:41:11;;;;;;;0.5;0.3;;;;;;;13.75;48.88477;928.0034;;;;
2021/05/06 14:43:36;;;;;;;0.6;0.4;;;;;;;13.76;49.86523;928.0151;;;;
2021/05/06 14:46:02;;;;;;;1.1;0.5;;;;;;;13.65;49.74707;927.9814;;;;
2021/05/06 14:48:27;;;;;;;1.1;0.6;;;;;;;13.29;51.95898;928.0089;;;;
2021/05/06 14:50:54;;;;;;;0.4;0.4;;;;;;;13.4;52.24902;927.9861;;;;
2021/05/06 14:53:19;;;;;;;0.3;0.3;;;;;;;13.26;53.27734;928.0598;;;;
2021/05/06 14:55:44;;;;;;;0.5;0.5;;;;;;;13.18;53.69238;927.9818;;;;
2021/05/06 14:58:09;;;;;;;1.2;0.3;;;;;;;13.23;53.44629;927.9453;;;;
2021/05/06 15:00:34;;;;;;;3.2;0.4;;;;;;;13.26;53.63281;927.8943;;;;
2021/05/06 15:02:59;;;;;;;0.6;0.6;;;;;;;13.01;54.71582;927.9073;;;;
2021/05/06 15:05:24;;;;;;;1.6;0.9;;;;;;;13.13;54.66309;927.8984;;;;
2021/05/06 15:07:49;;;;;;;0.4;0.3;;;;;;;12.76;56.24609;927.8495;;;;
2021/05/06 15:10:14;;;;;;;0.2;0.2;;;;;;;12.84;56.64648;927.9117;;;;
2021/05/06 15:12:39;;;;;;;0.4;0.3;;;;;;;13.07;56.15918;927.8411;;;;
2021/05/06 15:15:07;;;;;;;0.3;0.2;;;;;;;13.24;55.33105;927.7459;;;;
2021/05/06 15:17:32;;;;;;;1;0.7;;;;;;;13.19;55.8877;927.6707;;;;
2021/05/06 15:19:57;;;;;;;0.3;0.3;;;;;;;13.05;55.22656;927.7063;;;;
2021/05/06 15:22:24;;;;;;;0.3;0.2;;;;;;;12.97;55.11328;927.6937;;;;
2021/05/06 15:24:48;;;;;;;0.3;0.3;;;;;;;13.05;55.87012;927.6728;;;;
2021/05/06 15:27:13;;;;;;;1.5;0.7;;;;;;;12.87;56.11035;927.69;;;;
2021/05/06 15:29:40;;;;;;;0.4;0.4;;;;;;;12.85;55.83301;927.5616;;;;
2021/05/06 15:32:04;;;;;;;0.7;0.4;;;;;;;12.98;56.08984;927.5226;;;;
2021/05/06 15:34:30;;;;;;;0.3;0.3;;;;;;;12.97;55.48047;927.6275;;;;
2021/05/06 15:36:55;;;;;;;5.3;0.6;;;;;;;13.07;55.66504;927.5957;;;;
2021/05/06 15:39:20;;;;;;;0.5;0.3;;;;;;;13.19;55.56445;927.598;;;;
2021/05/06 15:41:46;;;;;;;0.4;0.3;;;;;;;13.09;56.0127;927.6138;;;;
2021/05/06 15:44:11;;;;;;;0.8;0.4;;;;;;;12.99;55.83887;927.7023;;;;
2021/05/06 15:46:36;;;;;;;2.4;0.7;;;;;;;13.09;55.04785;927.6241;;;;
2021/05/06 15:49:02;;;;;;;0.5;0.4;;;;;;;13.08;55.87305;927.5123;;;;
2021/05/06 15:51:28;;;;;;;0.8;0.6;;;;;;;12.91;56.20703;927.6038;;;;
2021/05/06 15:53:53;;;;;;;0.5;0.3;;;;;;;12.96;56.74121;927.5134;;;;
2021/05/06 15:56:19;;;;;;;2;0.8;;;;;;;12.49;58.94043;927.4422;;;;
2021/05/06 15:58:44;;;;;;;0.5;0.4;;;;;;;12.65;57.86035;927.4288;;;;
2021/05/06 16:01:12;;;;;;;0.2;0.2;;;;;;;12.56;58.9502;927.3438;;;;
2021/05/06 16:03:45;;;;;;;0.6;0.6;;;;;;;12.56;59.12207;927.4722;;;;
2021/05/06 16:06:03;;;;;;;0.1;0.1;;;;;;;12.55;59.09668;927.5187;;;;
2021/05/06 16:08:27;;;;;;;0.5;0.5;;;;;;;12.5;59.89258;927.4653;;;;
2021/05/06 16:10:52;;;;;;;0.9;0.6;;;;;;;12.64;59.20117;927.4442;;;;
2021/05/06 16:13:19;;;;;;;3.6;0.6;;;;;;;12.64;60.17676;927.4291;;;;
2021/05/06 16:15:44;;;;;;;0.6;0.6;;;;;;;12.64;59.30469;927.3971;;;;
2021/05/06 16:18:11;;;;;;;0.5;0.3;;;;;;;12.5;59.85938;927.3709;;;;
2021/05/06 16:20:40;;;;;;;1.1;0.9;;;;;;;12.43;60.36719;927.4416;;;;
2021/05/06 16:23:01;;;;;;;0.7;0.7;;;;;;;12.41;62.42578;927.5175;;;;
2021/05/06 16:25:27;;;;;;;1.8;1.3;;;;;;;12;64.09863;927.5019;;;;
2021/05/06 16:27:52;;;;;;;0.6;0.5;;;;;;;12.1;63.0918;927.3876;;;;
2021/05/06 16:30:17;;;;;;;0.5;0.4;;;;;;;12.16;62.58594;927.4034;;;;
2021/05/06 16:32:44;;;;;;;0.5;0.5;;;;;;;12.24;62.71191;927.5016;;;;
2021/05/06 16:35:11;;;;;;;0.8;0.5;;;;;;;12.29;63.42871;927.4258;;;;
2021/05/06 16:37:42;;;;;;;0.7;0.6;;;;;;;12.42;62.63477;927.4465;;;;
2021/05/06 16:40:07;;;;;;;3;1.1;;;;;;;12.2;63.56641;927.4866;;;;
2021/05/06 16:42:45;;;;;;;1.4;0.8;;;;;;;12.31;63.66211;927.4239;;;;
2021/05/06 16:44:53;;;;;;;0.8;0.4;;;;;;;12.34;63.67773;927.3204;;;;
2021/05/06 16:47:17;;;;;;;4.4;0.4;;;;;;;12.31;64.39648;927.3697;;;;
2021/05/06 16:49:44;;;;;;;0.9;0.7;;;;;;;12.3;64.22266;927.3155;;;;
2021/05/06 16:52:09;;;;;;;1;0.6;;;;;;;12.29;63.7168;927.3708;;;;
2021/05/06 16:54:35;;;;;;;0.5;0.4;;;;;;;11.75;67.07227;927.4066;;;;
2021/05/06 16:57:00;;;;;;;2.8;0.4;;;;;;;12.02;66.43848;927.3767;;;;
2021/05/06 16:59:25;;;;;;;1;0.5;;;;;;;12.06;66.27246;927.3697;;;;
2021/05/06 17:01:50;;;;;;;2.1;0.8;;;;;;;11.91;67.11914;927.3667;;;;